Time;durP1;ratioP1;P1;durP2;ratioP2;P2;SDS_P1;SDS_P2;PMS_P1;PMS_P2;Temp;Humidity;BMP_temperature;BMP_pressure;BME280_temperature;BME280_humidity;BME280_pressure;Samples;Min_cycle;Max_cycle;Signal;HPM_P1;HPM_P2
2023/08/04 00:00:15;;;;;;;2.45;1.23;;;;;;;15.72;79.15;95446.00;2066391;28;20061;-65
2023/08/04 00:01:16;;;;;;;3.13;1.10;;;;;;;15.70;79.39;95445.28;2065631;28;20054;-67
2023/08/04 00:02:18;;;;;;;2.80;1.00;;;;;;;15.69;79.59;95436.59;2066509;28;20054;-66
2023/08/04 00:03:19;;;;;;;2.55;0.90;;;;;;;15.70;79.46;95437.44;2066414;28;20054;-66
2023/08/04 00:04:20;;;;;;;2.00;0.82;;;;;;;15.63;79.83;95432.63;2057802;28;20059;-66
2023/08/04 00:05:21;;;;;;;2.97;1.30;;;;;;;15.63;79.84;95435.22;2057677;28;20057;-65
2023/08/04 00:06:22;;;;;;;2.83;1.13;;;;;;;15.62;80.31;95424.91;2066693;28;20066;-66
2023/08/04 00:07:24;;;;;;;2.38;1.17;;;;;;;15.58;79.68;95433.91;2066480;28;20066;-66
2023/08/04 00:08:27;;;;;;;2.03;0.90;;;;;;;15.59;80.21;95433.81;2065941;28;20057;-66
2023/08/04 00:09:28;;;;;;;3.50;1.20;;;;;;;15.58;80.98;95431.31;2066053;28;20065;-66
2023/08/04 00:10:30;;;;;;;4.30;1.30;;;;;;;15.56;80.79;95426.19;2065709;28;20057;-66
2023/08/04 00:11:31;;;;;;;1.75;1.08;;;;;;;15.53;79.97;95429.06;2066212;28;20062;-66
2023/08/04 00:12:32;;;;;;;3.30;1.05;;;;;;;15.56;80.92;95428.81;2066371;28;20046;-67
2023/08/04 00:13:33;;;;;;;5.10;1.15;;;;;;;15.52;81.06;95429.97;2065943;28;20054;-66
2023/08/04 00:14:34;;;;;;;4.07;1.20;;;;;;;15.49;80.84;95414.53;2065559;28;20054;-66
2023/08/04 00:15:35;;;;;;;3.55;1.33;;;;;;;15.52;80.88;95427.38;2065438;28;20054;-66
2023/08/04 00:16:37;;;;;;;1.77;0.90;;;;;;;15.50;81.61;95420.59;2066388;28;20054;-67
2023/08/04 00:17:38;;;;;;;5.53;1.13;;;;;;;15.49;80.82;95419.75;2065886;28;20050;-66
2023/08/04 00:18:40;;;;;;;4.63;1.00;;;;;;;15.56;80.85;95422.75;2067151;28;20050;-66
2023/08/04 00:19:41;;;;;;;3.55;1.08;;;;;;;15.52;81.24;95419.53;2065548;28;20066;-68
2023/08/04 00:20:42;;;;;;;4.30;1.20;;;;;;;15.51;80.93;95423.09;2065748;28;20482;-66
2023/08/04 00:21:43;;;;;;;3.75;1.48;;;;;;;15.51;81.68;95424.88;2066333;28;20043;-67
2023/08/04 00:22:45;;;;;;;4.68;1.00;;;;;;;15.46;81.76;95424.41;2057628;28;20093;-66
2023/08/04 00:23:46;;;;;;;1.95;1.00;;;;;;;15.45;81.46;95428.81;2057753;28;20059;-67
2023/08/04 00:24:47;;;;;;;1.83;0.90;;;;;;;15.51;81.86;95427.50;2066062;28;20070;-66
2023/08/04 00:25:48;;;;;;;4.00;1.77;;;;;;;15.52;81.72;95426.53;2065275;28;20065;-66
2023/08/04 00:26:49;;;;;;;2.72;1.00;;;;;;;15.52;81.70;95423.91;2065424;28;20058;-66
2023/08/04 00:27:51;;;;;;;4.30;1.17;;;;;;;15.54;81.34;95430.72;2066293;28;20050;-67
2023/08/04 00:28:52;;;;;;;2.05;1.20;;;;;;;15.58;81.57;95432.16;2065923;28;20065;-67
2023/08/04 00:29:53;;;;;;;3.25;1.13;;;;;;;15.52;81.87;95416.06;2065822;28;20085;-67
2023/08/04 00:30:55;;;;;;;4.28;1.30;;;;;;;15.56;81.60;95428.00;2066030;28;20050;-67
2023/08/04 00:31:56;;;;;;;4.70;1.20;;;;;;;15.54;81.71;95416.78;2066096;28;20046;-67
2023/08/04 00:32:58;;;;;;;2.45;1.10;;;;;;;15.55;82.06;95429.75;2066137;28;20049;-66
2023/08/04 00:34:00;;;;;;;2.92;1.55;;;;;;;15.47;81.78;95416.41;2066262;28;20489;-67
2023/08/04 00:35:03;;;;;;;2.50;1.10;;;;;;;15.51;82.36;95419.66;2065717;28;20070;-67
2023/08/04 00:36:04;;;;;;;3.72;1.10;;;;;;;15.49;81.48;95417.13;2065999;28;20046;-67
2023/08/04 00:37:06;;;;;;;8.40;1.33;;;;;;;15.46;81.73;95425.22;2056866;28;20046;-68
2023/08/04 00:38:07;;;;;;;5.25;1.00;;;;;;;15.48;82.57;95419.88;2057267;28;20049;-67
2023/08/04 00:39:08;;;;;;;5.65;1.30;;;;;;;15.38;81.95;95398.81;2065875;28;20054;-67
2023/08/04 00:40:10;;;;;;;3.78;1.02;;;;;;;15.50;82.06;95437.09;2065050;28;20046;-66
2023/08/04 00:41:11;;;;;;;2.40;0.80;;;;;;;15.51;82.06;95422.28;2066218;28;20058;-66
2023/08/04 00:42:12;;;;;;;1.92;0.95;;;;;;;15.38;82.56;95417.13;2065649;28;20050;-66
2023/08/04 00:43:13;;;;;;;3.95;1.15;;;;;;;15.41;82.65;95422.94;2064739;28;20133;-66
2023/08/04 00:44:14;;;;;;;4.57;1.15;;;;;;;15.39;82.69;95424.00;2057750;28;20066;-67
2023/08/04 00:45:16;;;;;;;3.50;1.05;;;;;;;15.39;83.22;95422.22;2057536;28;20426;-67
2023/08/04 00:46:18;;;;;;;2.67;1.05;;;;;;;15.38;83.38;95422.34;2057568;28;20531;-67
2023/08/04 00:47:20;;;;;;;4.18;1.30;;;;;;;15.39;83.06;95424.00;2049414;29;20066;-66
2023/08/04 00:48:21;;;;;;;3.40;1.20;;;;;;;15.31;83.44;95421.13;2057345;28;20073;-67
2023/08/04 00:49:22;;;;;;;2.78;0.90;;;;;;;15.26;83.69;95426.72;2056424;28;20529;-66
2023/08/04 00:50:24;;;;;;;4.38;1.25;;;;;;;15.25;83.47;95432.06;2056898;28;20055;-67
2023/08/04 00:51:26;;;;;;;3.13;1.33;;;;;;;15.24;83.87;95419.94;2049141;28;20072;-67
2023/08/04 00:52:27;;;;;;;4.68;1.10;;;;;;;15.21;83.92;95427.06;2057243;28;20058;-67
2023/08/04 00:53:28;;;;;;;2.60;0.95;;;;;;;15.26;84.05;95424.09;2056401;28;20058;-66
2023/08/04 00:54:29;;;;;;;3.85;1.00;;;;;;;15.24;84.34;95420.78;2049395;28;20115;-66
2023/08/04 00:55:32;;;;;;;3.95;1.30;;;;;;;15.22;83.83;95412.22;2056990;28;20077;-67
2023/08/04 00:56:33;;;;;;;4.85;1.00;;;;;;;15.20;84.46;95414.09;2056904;28;20470;-67
2023/08/04 00:57:37;;;;;;;2.30;1.00;;;;;;;15.20;84.43;95417.53;2041246;29;20501;-67
2023/08/04 00:58:39;;;;;;;2.05;0.88;;;;;;;15.21;84.65;95427.06;2041873;29;20058;-67
2023/08/04 00:59:40;;;;;;;2.55;1.10;;;;;;;15.15;84.89;95414.44;2048918;28;20055;-66
2023/08/04 01:00:41;;;;;;;1.60;0.90;;;;;;;15.15;85.19;95419.66;2066035;28;20065;-67
2023/08/04 01:01:42;;;;;;;3.78;1.10;;;;;;;15.14;85.04;95425.84;2065765;28;20053;-67
2023/08/04 01:02:44;;;;;;;3.85;1.20;;;;;;;15.17;84.98;95425.63;2065382;28;20081;-67
2023/08/04 01:03:45;;;;;;;8.00;1.73;;;;;;;15.17;84.89;95425.63;2064913;28;20141;-68
2023/08/04 01:04:46;;;;;;;2.58;1.23;;;;;;;15.16;85.32;95429.19;2065464;28;20050;-67
2023/08/04 01:05:54;;;;;;;2.83;1.10;;;;;;;15.12;85.19;95424.28;2065335;28;20057;-67
2023/08/04 01:07:15;;;;;;;3.15;1.23;;;;;;;15.20;85.15;95433.22;2057199;28;20073;-67
2023/08/04 01:08:22;;;;;;;2.22;1.00;;;;;;;15.10;85.33;95426.19;2054630;28;20086;-67
2023/08/04 01:09:48;;;;;;;4.80;1.27;;;;;;;15.07;85.81;95435.09;2065221;28;20509;-67
2023/08/04 01:10:58;;;;;;;2.22;1.27;;;;;;;15.07;86.24;95437.69;2065372;28;20058;-66
2023/08/04 01:12:11;;;;;;;2.92;1.08;;;;;;;15.04;85.83;95430.09;2057530;28;20069;-66
2023/08/04 01:13:13;;;;;;;3.20;1.38;;;;;;;14.98;86.88;95431.38;2051544;28;20102;-67
2023/08/04 01:14:15;;;;;;;4.10;1.40;;;;;;;15.00;86.76;95424.25;2049427;28;20100;-68
2023/08/04 01:15:16;;;;;;;3.83;1.23;;;;;;;15.02;86.55;95423.31;2057136;28;20140;-67
2023/08/04 01:16:18;;;;;;;2.80;1.20;;;;;;;15.03;87.05;95432.84;2048708;29;20434;-67
2023/08/04 01:17:26;;;;;;;3.90;1.10;;;;;;;15.04;86.17;95421.41;2049336;28;20062;-68
2023/08/04 01:18:27;;;;;;;4.95;1.30;;;;;;;15.04;86.19;95424.03;2065986;28;20455;-67
2023/08/04 01:19:29;;;;;;;4.65;1.23;;;;;;;15.01;86.60;95425.09;2057289;28;20418;-67
2023/08/04 01:20:30;;;;;;;3.50;1.10;;;;;;;14.99;86.68;95426.97;2049259;28;20427;-67
2023/08/04 01:21:41;;;;;;;3.75;1.17;;;;;;;14.97;87.04;95432.34;2057250;28;20463;-68
2023/08/04 01:22:43;;;;;;;3.53;1.08;;;;;;;14.96;86.87;95432.44;2065985;28;20061;-67
2023/08/04 01:23:54;;;;;;;2.88;1.20;;;;;;;14.96;86.95;95427.22;2065381;28;20450;-68
2023/08/04 01:24:56;;;;;;;3.08;1.38;;;;;;;14.94;87.15;95429.09;2065200;28;20501;-67
2023/08/04 01:25:57;;;;;;;4.28;1.30;;;;;;;14.95;86.87;95426.38;2065435;28;20050;-68
2023/08/04 01:26:58;;;;;;;3.28;1.33;;;;;;;14.94;86.84;95419.50;2065754;28;20062;-68
2023/08/04 01:28:01;;;;;;;5.28;1.35;;;;;;;14.92;87.12;95424.00;2065808;28;20053;-67
2023/08/04 01:29:02;;;;;;;3.45;1.42;;;;;;;14.83;87.33;95413.38;2065605;28;20050;-68
2023/08/04 01:30:05;;;;;;;2.78;1.20;;;;;;;14.94;87.09;95429.94;2055779;28;20046;-68
2023/08/04 01:31:07;;;;;;;2.78;1.10;;;;;;;14.91;87.47;95422.31;2041458;29;20047;-67
2023/08/04 01:32:08;;;;;;;4.63;1.52;;;;;;;14.87;87.35;95423.50;2033635;29;20052;-67
2023/08/04 01:33:09;;;;;;;4.45;1.67;;;;;;;14.86;87.83;95432.31;2049290;28;20404;-67
2023/08/04 01:34:10;;;;;;;3.20;1.20;;;;;;;14.87;87.53;95420.88;2049293;28;20375;-68
2023/08/04 01:35:11;;;;;;;4.72;1.30;;;;;;;14.87;87.28;95426.13;2049216;28;20480;-67
2023/08/04 01:36:13;;;;;;;4.50;1.55;;;;;;;14.84;87.63;95422.91;2057200;28;20046;-68
2023/08/04 01:37:14;;;;;;;4.03;1.42;;;;;;;14.82;87.48;95416.94;2049418;29;20043;-68
2023/08/04 01:38:15;;;;;;;4.75;1.20;;;;;;;14.81;87.49;95410.88;2048641;28;20055;-67
2023/08/04 01:39:16;;;;;;;2.72;1.08;;;;;;;14.86;87.68;95415.75;2065885;28;20054;-68
2023/08/04 01:40:18;;;;;;;3.08;1.15;;;;;;;14.83;87.39;95415.97;2065066;28;20474;-67
2023/08/04 01:41:19;;;;;;;4.15;1.35;;;;;;;14.81;88.20;95407.41;2065076;28;20424;-67
2023/08/04 01:42:20;;;;;;;3.80;1.40;;;;;;;14.82;87.60;95414.31;2065275;28;20061;-68
2023/08/04 01:43:22;;;;;;;6.97;1.67;;;;;;;14.80;87.50;95417.03;2065548;28;20049;-67
2023/08/04 01:44:23;;;;;;;3.72;1.30;;;;;;;14.80;87.40;95413.59;2065088;28;20053;-69
2023/08/04 01:45:25;;;;;;;4.00;1.40;;;;;;;14.72;87.52;95395.88;2065533;28;20062;-67
2023/08/04 01:46:26;;;;;;;2.72;0.90;;;;;;;14.81;87.80;95404.81;2064973;28;20053;-67
2023/08/04 01:47:27;;;;;;;2.20;1.20;;;;;;;14.81;87.44;95394.34;2065251;28;20483;-67
2023/08/04 01:48:28;;;;;;;3.28;1.10;;;;;;;14.85;87.40;95394.00;2065746;28;20474;-68
2023/08/04 01:49:29;;;;;;;3.33;1.00;;;;;;;14.84;87.35;95394.16;2065225;28;20053;-69
2023/08/04 01:50:30;;;;;;;2.55;1.10;;;;;;;14.84;87.59;95389.75;2064794;28;20051;-68
2023/08/04 01:51:32;;;;;;;3.97;1.38;;;;;;;14.75;87.43;95380.81;2056934;28;20443;-69
2023/08/04 01:52:33;;;;;;;2.15;1.00;;;;;;;14.76;87.45;95395.53;2057260;28;20043;-68
2023/08/04 01:53:34;;;;;;;3.70;1.33;;;;;;;14.82;87.64;95391.63;2056969;28;20059;-67
2023/08/04 01:54:35;;;;;;;3.78;1.10;;;;;;;14.78;87.39;95387.56;2049080;29;20055;-68
2023/08/04 01:55:37;;;;;;;3.13;1.40;;;;;;;14.84;87.31;95400.19;2056385;28;20498;-69
2023/08/04 01:56:38;;;;;;;1.90;1.08;;;;;;;14.82;87.10;95393.41;2048300;29;20059;-68
2023/08/04 01:57:39;;;;;;;6.90;1.33;;;;;;;14.82;87.28;95396.84;2040803;29;20055;-68
2023/08/04 01:58:41;;;;;;;2.30;1.02;;;;;;;14.81;87.60;95395.19;2056996;28;20051;-68
2023/08/04 01:59:42;;;;;;;3.40;1.25;;;;;;;14.78;87.88;95392.78;2049136;28;20051;-68
2023/08/04 02:00:43;;;;;;;4.00;1.30;;;;;;;14.81;87.36;95391.72;2056902;28;20498;-68
2023/08/04 02:01:45;;;;;;;3.53;1.10;;;;;;;14.80;87.85;95385.69;2064647;28;20057;-68
2023/08/04 02:02:46;;;;;;;4.60;1.20;;;;;;;14.75;87.46;95383.44;2064187;28;20058;-70
2023/08/04 02:03:47;;;;;;;3.80;1.08;;;;;;;14.76;88.20;95384.25;2064981;28;20058;-68
2023/08/04 02:04:48;;;;;;;4.75;1.38;;;;;;;14.76;87.28;95382.47;2065173;28;20702;-68
2023/08/04 02:05:50;;;;;;;2.63;1.10;;;;;;;14.77;88.03;95380.69;2065092;28;20054;-68
2023/08/04 02:06:51;;;;;;;3.92;1.08;;;;;;;14.72;86.91;95373.16;2056962;28;20055;-68
2023/08/04 02:07:52;;;;;;;1.67;0.90;;;;;;;14.76;87.10;95385.06;2056615;28;20058;-69
2023/08/04 02:08:54;;;;;;;3.00;1.27;;;;;;;14.74;87.36;95386.97;2056950;28;20046;-68
2023/08/04 02:09:55;;;;;;;4.15;1.27;;;;;;;14.72;87.43;95394.06;2057041;28;20051;-68
2023/08/04 02:10:57;;;;;;;3.67;1.40;;;;;;;14.62;87.51;95374.81;2065544;28;20057;-67
2023/08/04 02:11:58;;;;;;;1.98;1.20;;;;;;;14.68;87.34;95383.97;2065256;28;20062;-68
2023/08/04 02:12:59;;;;;;;2.88;1.10;;;;;;;14.62;87.56;95377.44;2064512;28;20046;-68
2023/08/04 02:14:01;;;;;;;2.42;1.00;;;;;;;14.68;87.34;95381.38;2065404;28;20050;-69
2023/08/04 02:15:03;;;;;;;2.55;1.15;;;;;;;14.66;87.33;95391.09;2057143;28;20103;-68
2023/08/04 02:16:04;;;;;;;4.32;1.42;;;;;;;14.66;87.86;95393.69;2056938;28;20043;-68
2023/08/04 02:17:05;;;;;;;4.20;1.20;;;;;;;14.62;87.41;95392.25;2065700;28;20422;-68
2023/08/04 02:18:06;;;;;;;3.60;1.23;;;;;;;14.62;87.49;95387.88;2064937;28;20411;-68
2023/08/04 02:19:08;;;;;;;3.55;1.10;;;;;;;14.62;87.06;95395.72;2065438;28;20061;-69
2023/08/04 02:20:10;;;;;;;3.58;1.15;;;;;;;14.62;87.08;95387.88;2065261;28;20057;-68
2023/08/04 02:21:11;;;;;;;4.65;1.15;;;;;;;14.61;87.63;95390.59;2056287;28;20047;-69
2023/08/04 02:22:15;;;;;;;6.65;1.83;;;;;;;14.60;87.55;95392.38;2057196;28;20057;-69
2023/08/04 02:23:16;;;;;;;3.63;1.13;;;;;;;14.57;87.46;95392.59;2065462;28;20065;-70
2023/08/04 02:24:17;;;;;;;2.92;1.20;;;;;;;14.54;87.33;95395.41;2065511;28;20073;-71
2023/08/04 02:25:19;;;;;;;4.00;1.13;;;;;;;14.53;87.33;95388.53;2064956;28;20058;-70
2023/08/04 02:26:20;;;;;;;2.95;1.10;;;;;;;14.49;87.91;95393.13;2065232;28;20063;-70
2023/08/04 02:27:22;;;;;;;2.67;1.17;;;;;;;14.52;87.88;95394.69;2065499;28;20066;-70
2023/08/04 02:28:23;;;;;;;2.67;1.00;;;;;;;14.51;87.48;95398.22;2064859;28;20059;-70
2023/08/04 02:29:24;;;;;;;4.88;1.20;;;;;;;14.37;87.90;95378.31;2065284;28;20426;-70
2023/08/04 02:30:25;;;;;;;2.28;1.10;;;;;;;14.50;88.12;95405.22;2065482;28;20494;-70
2023/08/04 02:31:28;;;;;;;3.60;1.50;;;;;;;14.47;87.51;95407.25;2056534;28;20054;-70
2023/08/04 02:32:29;;;;;;;2.38;1.15;;;;;;;14.44;87.74;95407.47;2056253;28;20074;-70
2023/08/04 02:33:31;;;;;;;2.25;1.00;;;;;;;14.41;88.39;95418.97;2056805;28;20062;-70
2023/08/04 02:34:32;;;;;;;3.78;1.52;;;;;;;14.43;87.84;95413.63;2056789;28;20058;-70
2023/08/04 02:35:33;;;;;;;5.35;1.45;;;;;;;14.36;88.53;95402.78;2065331;28;20054;-70
2023/08/04 02:36:39;;;;;;;3.47;1.45;;;;;;;14.40;88.45;95411.22;2065565;28;20053;-69
2023/08/04 02:37:40;;;;;;;3.47;1.33;;;;;;;14.38;88.41;95423.56;2064778;28;20063;-70
2023/08/04 02:38:41;;;;;;;3.33;1.15;;;;;;;14.37;88.18;95412.28;2065358;28;20050;-70
2023/08/04 02:39:42;;;;;;;3.60;1.27;;;;;;;14.36;88.31;95409.78;2064554;28;20046;-70
2023/08/04 02:40:44;;;;;;;4.60;1.27;;;;;;;14.38;87.87;95403.50;2056638;28;20051;-70
2023/08/04 02:41:46;;;;;;;4.28;1.20;;;;;;;14.42;88.55;95407.56;2056891;28;20059;-69
2023/08/04 02:42:47;;;;;;;5.65;1.40;;;;;;;14.39;88.50;95401.72;2065207;28;20047;-70
2023/08/04 02:43:50;;;;;;;3.28;1.40;;;;;;;14.34;88.46;95395.03;2064367;28;20054;-70
2023/08/04 02:44:55;;;;;;;2.10;0.98;;;;;;;14.35;88.73;95390.66;2065136;28;20051;-70
2023/08/04 02:45:56;;;;;;;2.90;1.17;;;;;;;14.34;88.31;95399.44;2064829;28;20050;-70
2023/08/04 02:46:57;;;;;;;2.75;1.13;;;;;;;14.33;88.55;95403.84;2065698;28;20054;-70
2023/08/04 02:47:59;;;;;;;5.95;1.60;;;;;;;14.32;88.84;95396.09;2065083;28;20054;-71
2023/08/04 02:49:01;;;;;;;3.90;1.25;;;;;;;14.33;88.63;95403.84;2065411;28;20058;-69
2023/08/04 02:50:06;;;;;;;3.92;1.15;;;;;;;14.27;88.50;95403.41;2065042;28;20055;-70
2023/08/04 02:51:08;;;;;;;3.13;1.20;;;;;;;14.33;88.43;95411.66;2064839;28;20053;-70
2023/08/04 02:52:14;;;;;;;5.32;1.15;;;;;;;14.19;89.42;95400.53;2064480;28;20073;-70
2023/08/04 02:53:16;;;;;;;5.15;1.35;;;;;;;14.28;88.87;95426.84;2065110;28;20046;-70
2023/08/04 02:54:20;;;;;;;2.55;1.15;;;;;;;14.27;89.13;95429.53;2064246;28;20061;-70
2023/08/04 02:55:21;;;;;;;2.50;1.13;;;;;;;14.25;88.91;95421.81;2055791;28;20057;-70
2023/08/04 02:56:23;;;;;;;4.60;1.17;;;;;;;14.25;89.19;95427.06;2056881;28;20057;-70
2023/08/04 02:57:30;;;;;;;4.97;1.20;;;;;;;14.26;89.14;95428.72;2065166;28;20062;-70
2023/08/04 02:58:31;;;;;;;6.68;1.60;;;;;;;14.27;89.46;95419.09;2064959;28;20470;-70
2023/08/04 02:59:33;;;;;;;3.35;1.10;;;;;;;14.23;89.37;95423.72;2065395;28;20398;-70
2023/08/04 03:00:34;;;;;;;4.85;1.40;;;;;;;14.22;89.63;95411.59;2065349;28;20069;-69
2023/08/04 03:01:36;;;;;;;2.05;1.15;;;;;;;14.20;89.75;95405.66;2065211;28;20061;-70
2023/08/04 03:02:37;;;;;;;4.13;1.17;;;;;;;14.17;89.71;95411.09;2056651;28;20065;-70
2023/08/04 03:03:39;;;;;;;3.28;1.30;;;;;;;14.12;90.07;95405.34;2056849;28;20051;-70
2023/08/04 03:04:40;;;;;;;4.57;1.35;;;;;;;14.21;89.68;95415.13;2065223;28;20050;-70
2023/08/04 03:05:41;;;;;;;2.38;1.25;;;;;;;14.21;89.10;95409.91;2065720;28;20066;-70
2023/08/04 03:06:43;;;;;;;3.67;0.98;;;;;;;14.19;89.41;95416.19;2065448;28;20051;-70
2023/08/04 03:07:44;;;;;;;2.80;1.17;;;;;;;14.21;89.82;95419.53;2065356;28;20061;-70
2023/08/04 03:08:45;;;;;;;4.15;1.63;;;;;;;14.22;89.64;95418.59;2065251;28;20050;-70
2023/08/04 03:09:47;;;;;;;2.70;1.17;;;;;;;14.21;89.66;95415.13;2064784;28;20054;-70
2023/08/04 03:10:48;;;;;;;2.42;1.35;;;;;;;14.19;89.67;95413.59;2065282;28;20050;-70
2023/08/04 03:11:49;;;;;;;3.55;1.45;;;;;;;14.18;89.71;95414.53;2065144;28;20091;-70
2023/08/04 03:12:51;;;;;;;4.88;1.52;;;;;;;14.20;89.90;95408.25;2064470;28;20058;-70
2023/08/04 03:13:52;;;;;;;2.25;0.85;;;;;;;14.18;89.62;95411.94;2066403;28;20498;-70
2023/08/04 03:14:53;;;;;;;2.38;1.35;;;;;;;14.16;89.68;95413.81;2066970;28;20053;-70
2023/08/04 03:15:56;;;;;;;2.80;1.20;;;;;;;14.14;89.92;95413.94;2066828;28;20386;-70
2023/08/04 03:16:57;;;;;;;3.15;1.13;;;;;;;14.13;89.59;95414.84;2066414;28;20050;-70
2023/08/04 03:17:58;;;;;;;4.53;1.25;;;;;;;14.16;89.80;95417.25;2066728;28;20054;-70
2023/08/04 03:18:59;;;;;;;3.53;1.25;;;;;;;14.09;89.45;95416.84;2066653;28;20053;-70
2023/08/04 03:20:01;;;;;;;4.53;1.17;;;;;;;14.00;89.55;95401.81;2066673;28;20394;-70
2023/08/04 03:21:02;;;;;;;2.97;0.95;;;;;;;14.07;89.16;95415.28;2065652;28;20466;-70
2023/08/04 03:22:04;;;;;;;3.15;1.10;;;;;;;14.15;89.54;95417.38;2066935;28;20054;-70
2023/08/04 03:23:05;;;;;;;3.08;1.00;;;;;;;14.06;89.11;95400.56;2066673;28;20057;-70
2023/08/04 03:24:07;;;;;;;3.33;1.10;;;;;;;14.12;88.83;95410.59;2066589;28;20046;-70
2023/08/04 03:25:09;;;;;;;2.83;1.05;;;;;;;14.07;88.70;95407.47;2066858;28;20054;-71
2023/08/04 03:26:11;;;;;;;3.03;0.98;;;;;;;14.08;88.82;95417.78;2066711;28;20057;-71
2023/08/04 03:27:12;;;;;;;3.15;1.00;;;;;;;14.09;88.14;95416.03;2066002;28;20050;-70
2023/08/04 03:28:14;;;;;;;1.88;0.88;;;;;;;14.06;88.47;95411.00;2066853;28;20057;-71
2023/08/04 03:29:15;;;;;;;6.72;1.10;;;;;;;14.08;88.24;95416.94;2066789;28;20046;-71
2023/08/04 03:30:16;;;;;;;1.92;0.82;;;;;;;14.08;88.56;95417.78;2066719;28;20050;-71
2023/08/04 03:31:17;;;;;;;2.20;0.98;;;;;;;14.07;88.13;95423.94;2066484;28;20058;-71
2023/08/04 03:32:19;;;;;;;2.83;1.10;;;;;;;14.06;88.45;95422.28;2066076;28;20069;-71
2023/08/04 03:33:20;;;;;;;2.92;0.90;;;;;;;14.05;88.48;95427.63;2066534;28;20054;-71
2023/08/04 03:34:21;;;;;;;1.95;1.10;;;;;;;14.05;88.35;95425.81;2066815;28;20081;-71
2023/08/04 03:35:23;;;;;;;5.07;1.30;;;;;;;14.03;88.50;95413.81;2066639;28;20061;-71
2023/08/04 03:36:24;;;;;;;1.33;0.88;;;;;;;14.01;88.80;95426.16;2066748;28;20054;-71
2023/08/04 03:37:26;;;;;;;2.65;1.10;;;;;;;14.04;88.53;95423.34;2066695;28;20061;-71
2023/08/04 03:38:27;;;;;;;2.95;1.33;;;;;;;14.03;88.32;95421.66;2066723;28;20050;-71
2023/08/04 03:39:28;;;;;;;3.13;1.10;;;;;;;14.01;88.83;95423.56;2066019;28;20054;-71
2023/08/04 03:40:29;;;;;;;2.97;0.90;;;;;;;13.99;88.43;95410.59;2066729;28;20387;-71
2023/08/04 03:41:31;;;;;;;3.95;1.08;;;;;;;13.99;88.51;95420.22;2066559;28;20061;-71
2023/08/04 03:42:32;;;;;;;2.90;1.05;;;;;;;13.97;88.66;95427.31;2066026;28;20065;-71
2023/08/04 03:43:33;;;;;;;3.03;1.08;;;;;;;13.97;88.95;95422.09;2065433;28;20100;-71
2023/08/04 03:44:35;;;;;;;2.72;1.00;;;;;;;14.00;88.68;95435.75;2065740;28;20054;-71
2023/08/04 03:45:36;;;;;;;3.75;1.00;;;;;;;13.97;88.91;95432.53;2066403;28;20060;-71
2023/08/04 03:46:37;;;;;;;3.03;1.10;;;;;;;13.96;89.20;95430.88;2066186;28;20088;-71
2023/08/04 03:47:39;;;;;;;3.45;1.17;;;;;;;13.88;89.07;95421.78;2066436;28;20061;-71
2023/08/04 03:48:40;;;;;;;3.50;1.13;;;;;;;13.85;89.19;95416.78;2066565;28;20088;-71
2023/08/04 03:49:41;;;;;;;4.03;1.00;;;;;;;13.93;89.16;95436.31;2066260;28;20050;-71
2023/08/04 03:50:43;;;;;;;2.55;1.02;;;;;;;13.91;89.25;95436.41;2058001;28;20062;-70
2023/08/04 03:51:45;;;;;;;2.78;1.10;;;;;;;13.93;89.29;95436.31;2057679;28;20063;-71
2023/08/04 03:52:46;;;;;;;2.95;1.10;;;;;;;13.96;89.50;95436.09;2057831;28;20046;-71
2023/08/04 03:53:47;;;;;;;4.53;1.00;;;;;;;13.92;89.43;95434.63;2057409;28;20062;-71
2023/08/04 03:54:49;;;;;;;4.13;1.23;;;;;;;13.92;89.21;95434.63;2065978;28;20046;-71
2023/08/04 03:55:50;;;;;;;5.93;1.50;;;;;;;13.92;89.58;95437.22;2066285;28;20054;-71
2023/08/04 03:56:51;;;;;;;2.25;1.27;;;;;;;13.92;89.35;95440.69;2066563;28;20046;-71
2023/08/04 03:57:52;;;;;;;4.20;1.20;;;;;;;13.85;89.44;95440.28;2065902;28;20062;-71
2023/08/04 03:58:53;;;;;;;5.75;1.23;;;;;;;13.83;89.28;95434.31;2066299;28;20101;-71
2023/08/04 03:59:55;;;;;;;2.80;1.00;;;;;;;13.88;89.54;95447.06;2057518;28;20046;-71
2023/08/04 04:00:56;;;;;;;4.00;1.13;;;;;;;13.87;89.50;95442.75;2057546;28;20057;-71
2023/08/04 04:01:57;;;;;;;3.28;1.20;;;;;;;13.91;89.15;95449.47;2066043;28;20054;-70
2023/08/04 04:02:58;;;;;;;3.45;1.40;;;;;;;13.92;89.74;95443.28;2066509;28;20053;-71
2023/08/04 04:04:00;;;;;;;2.55;1.17;;;;;;;13.85;89.64;95437.66;2065791;28;20077;-71
2023/08/04 04:05:01;;;;;;;3.80;1.33;;;;;;;13.89;89.44;95441.72;2066493;28;20051;-71
2023/08/04 04:06:02;;;;;;;2.03;1.08;;;;;;;13.82;89.77;95437.03;2066790;28;20046;-71
2023/08/04 04:07:04;;;;;;;4.07;1.20;;;;;;;13.89;89.77;95446.94;2066407;28;20402;-71
2023/08/04 04:08:05;;;;;;;4.70;1.55;;;;;;;13.89;89.60;95448.72;2065994;28;20047;-71
2023/08/04 04:09:06;;;;;;;2.58;1.10;;;;;;;13.87;89.50;95438.41;2065804;28;20595;-71
2023/08/04 04:10:08;;;;;;;4.25;1.88;;;;;;;13.90;89.28;95445.19;2066153;28;20042;-71
2023/08/04 04:11:09;;;;;;;1.48;1.00;;;;;;;13.88;89.82;95439.22;2066238;28;20077;-71
2023/08/04 04:12:10;;;;;;;3.97;1.00;;;;;;;13.90;89.37;95438.19;2066116;28;20046;-70
2023/08/04 04:13:12;;;;;;;2.58;1.08;;;;;;;13.94;89.38;95444.03;2066017;28;20406;-71
2023/08/04 04:14:13;;;;;;;2.72;0.98;;;;;;;13.95;89.20;95442.25;2065793;28;20058;-71
2023/08/04 04:15:14;;;;;;;4.25;1.27;;;;;;;13.90;89.03;95445.19;2065912;28;20058;-71
2023/08/04 04:16:15;;;;;;;4.70;1.33;;;;;;;13.89;88.98;95441.72;2066146;28;20057;-71
2023/08/04 04:17:17;;;;;;;5.25;1.42;;;;;;;13.90;89.29;95447.81;2066484;28;20059;-70
2023/08/04 04:18:19;;;;;;;1.98;1.10;;;;;;;13.92;89.02;95450.28;2066241;28;20065;-71
2023/08/04 04:19:20;;;;;;;4.00;1.10;;;;;;;13.86;88.82;95434.09;2065622;28;20417;-70
2023/08/04 04:20:21;;;;;;;4.72;1.40;;;;;;;13.93;88.79;95447.59;2066259;28;20057;-70
2023/08/04 04:21:25;;;;;;;2.53;1.00;;;;;;;13.92;88.60;95448.50;2066182;28;20054;-71
2023/08/04 04:22:27;;;;;;;5.40;1.17;;;;;;;13.86;88.91;95433.28;2066085;28;20058;-71
2023/08/04 04:23:28;;;;;;;4.68;1.20;;;;;;;13.96;88.61;95449.16;2066241;28;20050;-71
2023/08/04 04:24:30;;;;;;;4.00;1.10;;;;;;;13.97;88.13;95449.03;2066202;28;20057;-70
2023/08/04 04:25:31;;;;;;;6.00;1.00;;;;;;;13.99;88.25;95454.97;2065533;28;20446;-70
2023/08/04 04:26:35;;;;;;;4.93;1.20;;;;;;;13.98;88.02;95450.72;2065091;28;20054;-70
2023/08/04 04:27:36;;;;;;;3.38;1.02;;;;;;;13.95;88.10;95443.06;2065651;28;20411;-69
2023/08/04 04:28:37;;;;;;;3.80;1.00;;;;;;;14.00;87.43;95446.19;2065339;28;20058;-70
2023/08/04 04:29:38;;;;;;;3.67;1.23;;;;;;;13.98;87.40;95447.25;2066223;28;20054;-70
2023/08/04 04:30:40;;;;;;;3.33;1.17;;;;;;;14.00;87.70;95447.97;2065929;28;20049;-71
2023/08/04 04:31:41;;;;;;;4.00;1.00;;;;;;;13.99;87.91;95449.75;2065469;28;20485;-71
2023/08/04 04:32:42;;;;;;;3.72;1.33;;;;;;;14.01;87.77;95447.06;2066143;28;20058;-71
2023/08/04 04:33:43;;;;;;;5.05;1.20;;;;;;;13.97;87.27;95442.97;2065624;28;20042;-70
2023/08/04 04:34:45;;;;;;;3.17;1.35;;;;;;;13.96;87.31;95441.31;2066318;28;20050;-71
2023/08/04 04:35:49;;;;;;;4.55;1.30;;;;;;;13.95;87.01;95445.69;2065811;28;20068;-70
2023/08/04 04:36:50;;;;;;;7.38;2.03;;;;;;;13.89;87.04;95436.50;2065598;28;20482;-71
2023/08/04 04:37:51;;;;;;;3.55;1.10;;;;;;;14.04;87.41;95460.72;2064810;28;20058;-71
2023/08/04 04:38:52;;;;;;;3.00;1.40;;;;;;;14.02;87.23;95469.59;2057178;28;20510;-70
2023/08/04 04:39:54;;;;;;;4.32;1.38;;;;;;;14.01;87.80;95468.78;2057470;28;20058;-70
2023/08/04 04:40:58;;;;;;;3.20;1.08;;;;;;;14.03;87.16;95466.03;2066049;28;20402;-70
2023/08/04 04:41:59;;;;;;;4.18;1.48;;;;;;;14.06;86.89;95465.81;2065374;28;20050;-70
2023/08/04 04:43:00;;;;;;;3.78;1.00;;;;;;;14.02;86.63;95453.94;2066041;28;20410;-70
2023/08/04 04:44:02;;;;;;;3.85;1.50;;;;;;;14.03;87.00;95456.44;2066128;28;20053;-70
2023/08/04 04:45:03;;;;;;;4.10;1.02;;;;;;;14.10;86.89;95464.69;2065850;28;20046;-70
2023/08/04 04:46:05;;;;;;;4.82;1.20;;;;;;;14.12;86.92;95461.03;2066101;28;20402;-70
2023/08/04 04:47:06;;;;;;;1.88;0.88;;;;;;;14.09;86.50;95463.03;2065878;28;20047;-69
2023/08/04 04:48:07;;;;;;;3.20;0.98;;;;;;;14.07;86.77;95459.69;2065580;28;20054;-69
2023/08/04 04:49:08;;;;;;;2.38;1.00;;;;;;;14.04;86.87;95460.72;2065818;28;20057;-68
2023/08/04 04:50:10;;;;;;;3.17;1.25;;;;;;;14.09;86.56;95456.03;2066171;28;20375;-67
2023/08/04 04:51:11;;;;;;;2.72;1.40;;;;;;;14.11;86.54;95454.13;2057357;28;20530;-68